Cloverdale, Ohio
Current Conditions -  °F | °C
As of 12:53 PM on Monday 22 Dec 2014 (Local Time) from KDFI Reporting Station
Haze Haze  
Wind Chill: 28°   Ceiling: 9500
Heat Index: 36°   Visibility: 5mi
Dew Point: 29°   Wind: 10mph
Humidity: 76%   Direction: 100°E
Pressure: 29.94"   Gusts: NA
Location:  41.02°N, 84.3°W
Report Text: KDFI 221753Z AUTO 10009KT 5SM HZ OVC095 02/M02 A2994 RMK AO2 SLP148 T00221017 10022 21039 58033 TSNO
Loading
Personal Weather Stations






























Interactive Weather Map New forecast layout! Learn more

10-Day Weather Forecast

Advertisements
Track Severe Weather on mobile